createdAt,value
2022-09-10T00:01:58.228Z,13.596802
2022-09-10T00:05:23.372Z,13.637085
2022-09-10T00:08:48.548Z,13.627014
2022-09-10T00:12:13.750Z,13.637085
2022-09-10T00:15:38.908Z,13.616943
2022-09-10T00:19:04.139Z,13.586731
2022-09-10T00:22:29.326Z,13.586731
2022-09-10T00:25:54.502Z,13.586731
2022-09-10T00:29:19.679Z,13.566589
2022-09-10T00:32:44.846Z,13.506165
2022-09-10T00:36:10.049Z,13.435669
2022-09-10T00:39:35.323Z,13.405457
2022-09-10T00:43:00.801Z,13.32489
2022-09-10T00:46:26.016Z,13.224182
2022-09-10T00:49:51.185Z,13.19397
2022-09-10T00:53:16.414Z,13.204041
2022-09-10T00:56:41.626Z,13.204041
2022-09-10T01:00:06.843Z,13.19397
2022-09-10T01:03:32.055Z,13.224182
2022-09-10T01:06:57.217Z,13.173828
2022-09-10T01:10:22.417Z,13.153687
2022-09-10T01:13:47.612Z,13.153687
2022-09-10T01:17:12.779Z,13.173828
2022-09-10T01:20:37.981Z,13.234253
2022-09-10T01:24:03.165Z,13.143616
2022-09-10T01:27:28.357Z,13.113403
2022-09-10T01:30:53.563Z,13.143616
2022-09-10T01:34:18.746Z,13.173828
2022-09-10T01:37:43.943Z,13.153687
2022-09-10T01:41:09.125Z,13.123474
2022-09-10T01:44:34.338Z,13.153687
2022-09-10T01:47:59.522Z,13.204041
2022-09-10T01:51:24.689Z,13.204041
2022-09-10T01:54:49.900Z,13.224182
2022-09-10T01:58:15.074Z,13.234253
2022-09-10T02:01:40.261Z,13.224182
2022-09-10T02:05:05.452Z,13.19397
2022-09-10T02:08:30.702Z,13.19397
2022-09-10T02:11:55.890Z,13.173828
2022-09-10T02:15:21.045Z,13.153687
2022-09-10T02:18:46.219Z,13.123474
2022-09-10T02:22:11.401Z,13.103333
2022-09-10T02:25:36.574Z,13.103333
2022-09-10T02:29:01.800Z,13.123474
2022-09-10T02:32:26.953Z,13.103333
2022-09-10T02:35:52.137Z,13.083191
2022-09-10T02:39:17.310Z,13.083191
2022-09-10T02:42:42.487Z,13.113403
2022-09-10T02:46:07.680Z,13.143616
2022-09-10T02:49:32.853Z,13.19397
2022-09-10T02:52:58.037Z,13.234253
2022-09-10T02:56:23.241Z,13.224182
2022-09-10T02:59:48.427Z,13.264465
2022-09-10T03:03:13.602Z,13.234253
2022-09-10T03:06:38.760Z,13.234253
2022-09-10T03:10:03.951Z,13.234253
2022-09-10T03:13:29.144Z,13.284607
2022-09-10T03:16:54.318Z,13.32489
2022-09-10T03:20:19.507Z,13.294678
2022-09-10T03:23:44.853Z,13.32489
2022-09-10T03:27:09.853Z,13.32489
2022-09-10T03:30:35.040Z,13.32489
2022-09-10T03:34:00.217Z,13.334961
2022-09-10T03:37:25.415Z,13.334961
2022-09-10T03:40:50.557Z,13.334961
2022-09-10T03:44:15.752Z,13.405457
2022-09-10T03:47:40.941Z,13.32489
2022-09-10T03:51:06.120Z,13.284607
2022-09-10T03:54:31.354Z,13.294678
2022-09-10T03:57:56.530Z,13.355103
2022-09-10T04:01:21.725Z,13.405457
2022-09-10T04:04:46.885Z,13.415527
2022-09-10T04:08:12.063Z,13.375244
2022-09-10T04:11:37.257Z,13.304749
2022-09-10T04:15:02.409Z,13.32489
2022-09-10T04:18:27.595Z,13.385315
2022-09-10T04:21:52.779Z,13.415527
2022-09-10T04:25:17.936Z,13.435669
2022-09-10T04:28:43.132Z,13.506165
2022-09-10T04:32:08.265Z,13.536377
2022-09-10T04:35:33.446Z,13.486023
2022-09-10T04:38:58.632Z,13.516235
2022-09-10T04:42:23.808Z,13.516235
2022-09-10T04:45:49.048Z,13.566589
2022-09-10T04:49:14.205Z,13.627014
2022-09-10T04:52:39.419Z,13.657227
2022-09-10T04:56:04.660Z,13.637085
2022-09-10T04:59:29.870Z,13.627014
2022-09-10T05:02:55.114Z,13.657227
2022-09-10T05:06:20.271Z,13.667297
2022-09-10T05:09:45.465Z,13.657227
2022-09-10T05:13:10.671Z,13.687439
2022-09-10T05:16:35.945Z,13.727722
2022-09-10T05:20:01.118Z,13.778076
2022-09-10T05:23:26.265Z,13.778076
2022-09-10T05:26:51.429Z,13.788147
2022-09-10T05:30:16.591Z,13.838501
2022-09-10T05:33:41.774Z,13.868713
2022-09-10T05:37:06.999Z,13.818359
2022-09-10T05:40:32.190Z,13.808289
2022-09-10T05:43:57.369Z,13.788147
2022-09-10T05:47:22.585Z,13.768005
2022-09-10T05:50:47.759Z,13.788147
2022-09-10T05:54:12.961Z,13.808289
2022-09-10T05:57:38.141Z,13.707581
2022-09-10T06:01:03.352Z,13.69751
2022-09-10T06:04:28.528Z,13.69751
2022-09-10T06:07:53.709Z,13.778076
2022-09-10T06:11:18.906Z,13.818359
2022-09-10T06:14:44.077Z,13.848572
2022-09-10T06:18:09.325Z,13.868713
2022-09-10T06:21:34.496Z,13.778076
2022-09-10T06:24:59.695Z,13.687439
2022-09-10T06:28:24.895Z,13.667297
2022-09-10T06:31:50.061Z,13.596802
2022-09-10T06:35:15.260Z,13.616943
2022-09-10T06:38:40.481Z,13.667297
2022-09-10T06:42:05.643Z,13.687439
2022-09-10T06:45:30.898Z,13.667297
2022-09-10T06:48:56.387Z,13.667297
2022-09-10T06:52:21.268Z,13.616943
2022-09-10T06:55:46.501Z,13.596802
2022-09-10T06:59:11.707Z,13.586731
2022-09-10T07:02:36.892Z,13.596802
2022-09-10T07:06:02.048Z,13.616943
2022-09-10T07:09:27.268Z,13.667297
2022-09-10T07:12:52.505Z,13.69751
2022-09-10T07:16:17.696Z,13.727722
2022-09-10T07:19:42.889Z,13.838501
2022-09-10T07:23:11.045Z,13.919067
2022-09-10T07:26:33.228Z,13.959351
2022-09-10T07:29:58.425Z,13.959351
2022-09-10T07:33:23.629Z,13.999634
2022-09-10T07:36:48.818Z,14.120483
2022-09-10T07:40:14.006Z,14.20105
2022-09-10T07:43:39.193Z,14.271545
2022-09-10T07:47:04.397Z,14.432678
2022-09-10T07:50:29.819Z,14.472961
2022-09-10T07:53:55.080Z,14.613953
2022-09-10T07:57:20.271Z,14.724731
2022-09-10T08:00:45.453Z,14.825439
2022-09-10T08:04:10.642Z,14.946289
2022-09-10T08:07:35.841Z,15.016785
2022-09-10T08:11:01.127Z,14.986572
2022-09-10T08:14:26.290Z,14.916077
2022-09-10T08:17:51.467Z,14.885864
2022-09-10T08:21:16.693Z,14.70459
2022-09-10T08:24:41.903Z,14.70459
2022-09-10T08:28:07.086Z,14.694519
2022-09-10T08:31:32.265Z,14.734802
2022-09-10T08:34:57.447Z,14.765015
2022-09-10T08:38:22.630Z,14.805298
2022-09-10T08:41:47.800Z,14.875793
2022-09-10T08:45:13.056Z,14.875793
2022-09-10T08:48:38.293Z,14.734802
2022-09-10T08:52:03.437Z,14.724731
2022-09-10T08:55:28.654Z,14.694519
2022-09-10T08:58:53.843Z,14.724731
2022-09-10T09:02:31.851Z,14.754944
2022-09-10T09:05:44.249Z,14.885864
2022-09-10T09:09:12.327Z,14.95636
2022-09-10T09:12:34.620Z,15.127563
2022-09-10T09:15:59.945Z,15.167847
2022-09-10T09:19:25.613Z,15.20813
2022-09-10T09:22:50.772Z,15.228271
2022-09-10T09:26:16.000Z,15.278625
2022-09-10T09:29:41.187Z,15.308838
2022-09-10T09:33:06.381Z,15.33905
2022-09-10T09:36:31.609Z,15.268555
2022-09-10T09:39:56.836Z,15.308838
2022-09-10T09:43:22.052Z,15.379333
2022-09-10T09:46:47.225Z,15.4599
2022-09-10T09:50:12.428Z,15.500183
2022-09-10T09:53:37.655Z,15.540466
2022-09-10T09:57:02.853Z,15.540466
2022-09-10T10:00:28.027Z,15.560608
2022-09-10T10:03:53.216Z,15.540466
2022-09-10T10:07:18.405Z,15.560608
2022-09-10T10:10:43.618Z,15.651245
2022-09-10T10:14:08.789Z,15.691528
2022-09-10T10:17:33.956Z,15.903015
2022-09-10T10:20:59.200Z,16.114502
2022-09-10T10:24:24.364Z,16.386414
2022-09-10T10:27:49.596Z,16.638184
2022-09-10T10:31:14.763Z,16.829529
2022-09-10T10:34:40.135Z,16.97052
2022-09-10T10:38:05.613Z,16.879883
2022-09-10T10:41:30.811Z,16.759033
2022-09-10T10:44:56.020Z,16.668396
2022-09-10T10:48:21.234Z,16.728821
2022-09-10T10:51:46.470Z,16.819458
2022-09-10T10:55:11.676Z,16.819458
2022-09-10T10:58:36.859Z,16.879883
2022-09-10T11:02:02.218Z,17.010803
2022-09-10T11:05:27.326Z,17.030945
2022-09-10T11:08:52.525Z,16.980591
2022-09-10T11:12:17.721Z,16.889954
2022-09-10T11:15:42.948Z,16.728821
2022-09-10T11:19:08.170Z,16.527405
2022-09-10T11:22:33.337Z,16.154785
2022-09-10T11:25:58.616Z,15.741882
2022-09-10T11:29:23.838Z,15.4599
2022-09-10T11:32:49.056Z,15.157776
2022-09-10T11:36:14.251Z,14.976501
2022-09-10T11:39:39.453Z,14.916077
2022-09-10T11:43:04.652Z,14.906006
2022-09-10T11:46:30.312Z,14.805298
2022-09-10T11:49:56.244Z,14.83551
2022-09-10T11:53:22.110Z,14.805298
2022-09-10T11:56:47.297Z,14.795227
2022-09-10T12:00:12.521Z,14.754944
2022-09-10T12:03:40.757Z,14.795227
2022-09-10T12:07:04.640Z,14.906006
2022-09-10T12:10:29.905Z,14.936218
2022-09-10T12:13:55.107Z,15.026855
2022-09-10T12:17:20.350Z,15.167847
2022-09-10T12:20:45.551Z,15.349121
2022-09-10T12:24:10.732Z,15.600891
2022-09-10T12:27:35.971Z,15.782166
2022-09-10T12:31:01.183Z,16.044006
2022-09-10T12:34:26.296Z,16.144714
2022-09-10T12:37:51.559Z,16.265564
2022-09-10T12:41:16.750Z,16.265564
2022-09-10T12:44:42.007Z,16.34613
2022-09-10T12:48:07.197Z,16.406555
2022-09-10T12:51:32.369Z,16.406555
2022-09-10T12:54:57.561Z,16.34613
2022-09-10T12:58:25.432Z,16.295776
2022-09-10T13:01:50.705Z,16.245422
2022-09-10T13:05:15.770Z,16.275635
2022-09-10T13:08:41.123Z,16.245422
2022-09-10T13:12:14.288Z,16.235352
2022-09-10T13:15:39.519Z,16.144714
2022-09-10T13:19:04.750Z,16.174927
2022-09-10T13:22:29.898Z,16.174927
2022-09-10T13:25:55.065Z,16.174927
2022-09-10T13:29:20.227Z,16.114502
2022-09-10T13:32:45.411Z,16.09436
2022-09-10T13:36:10.620Z,16.144714
2022-09-10T13:39:35.813Z,16.154785
2022-09-10T13:43:01.011Z,16.205139
2022-09-10T13:46:26.227Z,16.33606
2022-09-10T13:49:51.402Z,16.487122
2022-09-10T13:53:16.579Z,16.5979
2022-09-10T13:56:41.727Z,16.577759
2022-09-10T14:00:06.896Z,16.527405
2022-09-10T14:03:32.122Z,16.517334
2022-09-10T14:06:57.234Z,16.477051
2022-09-10T14:10:22.435Z,16.275635
2022-09-10T14:13:47.592Z,16.154785
2022-09-10T14:17:12.778Z,16.054077
2022-09-10T14:20:37.964Z,16.013794
2022-09-10T14:24:03.145Z,15.96344
2022-09-10T14:27:28.334Z,15.96344
2022-09-10T15:05:17.421Z,16.426697
2022-09-10T15:08:42.465Z,16.446838
2022-09-10T15:12:07.633Z,16.446838
2022-09-10T15:15:32.877Z,16.416626
2022-09-10T15:18:57.989Z,16.34613
2022-09-10T15:22:23.180Z,16.305847
2022-09-10T15:25:48.330Z,16.265564
2022-09-10T15:29:13.540Z,16.195068
2022-09-10T15:32:38.712Z,16.09436
2022-09-10T15:36:03.896Z,16.003723
2022-09-10T15:39:29.099Z,15.943298
2022-09-10T15:42:54.257Z,15.872803
2022-09-10T15:46:19.493Z,15.83252
2022-09-10T15:49:44.635Z,15.751953
2022-09-10T15:53:11.963Z,15.691528
2022-09-10T15:56:35.010Z,15.651245
2022-09-10T16:00:00.163Z,15.651245
2022-09-10T16:03:25.330Z,15.570679
2022-09-10T16:06:50.512Z,15.570679
2022-09-10T16:10:15.701Z,15.4599
2022-09-10T16:13:40.890Z,15.379333
2022-09-10T16:17:06.060Z,15.379333
2022-09-10T16:20:31.245Z,15.349121
2022-09-10T16:23:56.436Z,15.308838
2022-09-10T16:27:21.586Z,15.278625
2022-09-10T16:30:46.857Z,15.248413
2022-09-10T16:34:11.948Z,15.187988
2022-09-10T16:37:37.141Z,15.167847
2022-09-10T16:41:02.335Z,15.157776
2022-09-10T16:44:27.521Z,15.08728
2022-09-10T16:47:52.736Z,15.127563
2022-09-10T16:51:18.049Z,15.127563
2022-09-10T16:54:43.215Z,15.157776
2022-09-10T16:58:08.404Z,15.157776
2022-09-10T17:01:33.658Z,15.157776
2022-09-10T17:04:58.910Z,15.187988
2022-09-10T17:08:24.104Z,15.137634
2022-09-10T17:11:49.287Z,15.107422
2022-09-10T17:15:14.501Z,15.08728
2022-09-10T17:18:39.771Z,15.026855
2022-09-10T17:22:04.944Z,14.95636
2022-09-10T17:25:30.113Z,14.906006
2022-09-10T17:28:55.336Z,14.976501
2022-09-10T17:32:20.521Z,14.986572
2022-09-10T17:35:46.383Z,14.95636
2022-09-10T17:39:11.582Z,14.936218
2022-09-10T17:42:36.737Z,14.936218
2022-09-10T17:46:01.968Z,14.916077
2022-09-10T17:49:27.143Z,14.906006
2022-09-10T17:52:52.377Z,14.885864
2022-09-10T17:56:17.622Z,14.83551
2022-09-10T17:59:42.796Z,14.805298
2022-09-10T18:03:07.951Z,14.825439
2022-09-10T18:06:33.164Z,14.795227
2022-09-10T18:09:58.361Z,14.795227
2022-09-10T18:13:23.626Z,14.795227
2022-09-10T18:16:48.813Z,14.775085
2022-09-10T18:20:14.124Z,14.775085
2022-09-10T18:23:39.312Z,14.775085
2022-09-10T18:27:04.492Z,14.775085
2022-09-10T18:30:29.798Z,14.765015
2022-09-10T18:33:54.955Z,14.765015
2022-09-10T18:37:20.139Z,14.765015
2022-09-10T18:40:45.378Z,14.765015
2022-09-10T18:44:10.577Z,14.775085
2022-09-10T18:47:44.393Z,14.70459
2022-09-10T18:51:01.374Z,14.724731
2022-09-10T18:54:26.574Z,14.694519
2022-09-10T18:57:51.841Z,14.70459
2022-09-10T19:01:17.151Z,14.654236
2022-09-10T19:05:00.673Z,14.694519
2022-09-10T19:08:07.704Z,14.644165
2022-09-10T19:11:32.972Z,14.654236
2022-09-10T19:14:58.202Z,14.684448
2022-09-10T19:18:23.398Z,14.644165
2022-09-10T19:21:48.642Z,14.603882
2022-09-10T19:25:13.778Z,14.603882
2022-09-10T19:28:39.016Z,14.573669
2022-09-10T19:32:04.208Z,14.58374
2022-09-10T19:35:29.468Z,14.58374
2022-09-10T19:38:54.684Z,14.624023
2022-09-10T19:42:19.844Z,14.613953
2022-09-10T19:45:45.030Z,14.644165
2022-09-10T19:49:10.253Z,14.654236
2022-09-10T19:52:35.406Z,14.58374
2022-09-10T19:56:00.616Z,14.573669
2022-09-10T19:59:25.844Z,14.58374
2022-09-10T20:02:51.070Z,14.543457
2022-09-10T20:06:16.280Z,14.553528
2022-09-10T20:09:41.522Z,14.543457
2022-09-10T20:13:06.771Z,14.503174
2022-09-10T20:16:31.934Z,14.472961
2022-09-10T20:19:57.139Z,14.45282
2022-09-10T20:23:22.383Z,14.432678
2022-09-10T20:26:47.612Z,14.472961
2022-09-10T20:30:14.250Z,14.513245
2022-09-10T20:33:38.007Z,14.472961
2022-09-10T20:37:03.216Z,14.462891
2022-09-10T20:40:28.433Z,14.45282
2022-09-10T20:43:53.664Z,14.472961
2022-09-10T20:47:18.924Z,14.513245
2022-09-10T20:50:44.138Z,14.462891
2022-09-10T20:54:09.390Z,14.402466
2022-09-10T20:57:34.693Z,14.402466
2022-09-10T21:00:59.889Z,14.392395
2022-09-10T21:04:25.175Z,14.33197
2022-09-10T21:07:50.379Z,14.352112
2022-09-10T21:11:15.638Z,14.271545
2022-09-10T21:14:40.869Z,14.291687
2022-09-10T21:18:06.105Z,14.281616
2022-09-10T21:21:31.314Z,14.281616
2022-09-10T21:24:56.531Z,14.352112
2022-09-10T21:28:21.742Z,14.362183
2022-09-10T21:31:46.896Z,14.362183
2022-09-10T21:35:12.145Z,14.402466
2022-09-10T21:38:37.403Z,14.362183
2022-09-10T21:42:02.604Z,14.321899
2022-09-10T21:45:27.829Z,14.281616
2022-09-10T21:48:53.055Z,14.271545
2022-09-10T21:52:18.241Z,14.241333
2022-09-10T21:55:43.492Z,14.271545
2022-09-10T21:59:08.696Z,14.281616
2022-09-10T22:02:33.937Z,14.291687
2022-09-10T22:05:59.061Z,14.281616
2022-09-10T22:09:24.319Z,14.251404
2022-09-10T22:12:49.572Z,14.221191
2022-09-10T22:16:14.751Z,14.241333
2022-09-10T22:19:39.969Z,14.221191
2022-09-10T22:23:05.195Z,14.251404
2022-09-10T22:26:30.389Z,14.241333
2022-09-10T22:29:55.601Z,14.241333
2022-09-10T22:33:20.816Z,14.251404
2022-09-10T22:36:46.025Z,14.221191
2022-09-10T22:40:11.273Z,14.221191
2022-09-10T22:43:36.456Z,14.221191
2022-09-10T22:47:01.691Z,14.241333
2022-09-10T22:50:26.862Z,14.271545
2022-09-10T22:53:52.078Z,14.281616
2022-09-10T22:57:17.343Z,14.291687
2022-09-10T23:00:42.568Z,14.321899
2022-09-10T23:04:07.793Z,14.33197
2022-09-10T23:07:32.950Z,14.291687
2022-09-10T23:10:58.193Z,14.33197
2022-09-10T23:14:23.371Z,14.321899
2022-09-10T23:17:48.584Z,14.321899
2022-09-10T23:21:13.844Z,14.271545
2022-09-10T23:24:39.006Z,14.241333
2022-09-10T23:28:07.162Z,14.251404
2022-09-10T23:31:29.459Z,14.271545
2022-09-10T23:34:54.599Z,14.271545
2022-09-10T23:38:19.779Z,14.281616
2022-09-10T23:41:44.939Z,14.281616
2022-09-10T23:45:10.086Z,14.281616
2022-09-10T23:48:35.240Z,14.281616
2022-09-10T23:52:00.411Z,14.291687
2022-09-10T23:55:25.644Z,14.281616
2022-09-10T23:58:50.797Z,14.33197
